Time;durP1;ratioP1;P1;durP2;ratioP2;P2;SDS_P1;SDS_P2;PMS_P1;PMS_P2;Temp;Humidity;BMP_temperature;BMP_pressure;BME280_temperature;BME280_humidity;BME280_pressure;Samples;Min_cycle;Max_cycle;Signal;HPM_P1;HPM_P2
2020/12/19 00:00:25;;;;;;;26.20;13.55;;;5.20;95.70;;;;;;5021998;28;20085;-67
2020/12/19 00:02:51;;;;;;;26.13;13.10;;;5.20;95.80;;;;;;5012824;28;20022;-68
2020/12/19 00:05:16;;;;;;;32.72;14.73;;;5.20;96.00;;;;;;5026226;28;20501;-68
2020/12/19 00:07:41;;;;;;;24.92;12.85;;;5.20;95.80;;;;;;5031919;28;20033;-68
2020/12/19 00:10:07;;;;;;;24.33;13.23;;;5.20;95.80;;;;;;5030046;28;20489;-69
2020/12/19 00:12:32;;;;;;;22.40;13.35;;;5.20;95.90;;;;;;5031490;28;20028;-68
2020/12/19 00:14:58;;;;;;;25.25;13.27;;;5.10;95.80;;;;;;5029640;28;20028;-69
2020/12/19 00:17:24;;;;;;;24.25;13.10;;;5.20;95.80;;;;;;5029032;28;20033;-68
2020/12/19 00:19:49;;;;;;;27.08;14.38;;;5.20;95.80;;;;;;5031189;28;20104;-69
2020/12/19 00:22:15;;;;;;;20.17;12.15;;;5.20;95.80;;;;;;5027476;28;20030;-69
2020/12/19 00:24:40;;;;;;;24.60;12.68;;;5.10;95.80;;;;;;5018488;28;20025;-68
2020/12/19 00:27:10;;;;;;;25.23;12.98;;;5.10;95.80;;;;;;5030166;28;20355;-68
2020/12/19 00:29:35;;;;;;;27.15;13.50;;;5.10;95.80;;;;;;5020791;28;20501;-68
2020/12/19 00:32:02;;;;;;;24.58;12.05;;;5.10;95.80;;;;;;5042248;28;20036;-68
2020/12/19 00:34:27;;;;;;;27.90;13.70;;;5.10;95.90;;;;;;5030255;28;20052;-68
2020/12/19 00:36:53;;;;;;;26.15;14.13;;;5.10;95.90;;;;;;5028301;28;20068;-68
2020/12/19 00:39:18;;;;;;;27.08;13.38;;;5.10;95.90;;;;;;5014633;28;20108;-68
2020/12/19 00:41:45;;;;;;;24.35;13.35;;;5.10;95.90;;;;;;5011300;28;20367;-68
2020/12/19 00:44:10;;;;;;;24.23;13.18;;;5.00;95.90;;;;;;4997018;28;20477;-68
2020/12/19 00:46:36;;;;;;;26.48;13.13;;;5.00;95.90;;;;;;5027954;28;20388;-69
2020/12/19 00:49:02;;;;;;;28.08;13.98;;;5.00;95.90;;;;;;5013178;28;20053;-68
2020/12/19 00:51:27;;;;;;;29.27;14.05;;;5.00;96.00;;;;;;5029289;28;20053;-68
2020/12/19 00:53:53;;;;;;;29.50;14.70;;;5.00;96.00;;;;;;5011313;28;20410;-69
2020/12/19 00:56:23;;;;;;;25.30;13.38;;;4.90;96.00;;;;;;5030740;28;20033;-68
2020/12/19 00:58:50;;;;;;;28.67;14.60;;;4.90;96.00;;;;;;5030605;28;20034;-69
2020/12/19 01:01:18;;;;;;;31.77;14.05;;;4.90;96.00;;;;;;5019980;28;20061;-68
2020/12/19 01:03:44;;;;;;;29.73;13.77;;;4.90;96.00;;;;;;5011780;28;20462;-67
2020/12/19 01:06:17;;;;;;;28.90;14.70;;;4.90;96.00;;;;;;5001757;28;20128;-67
2020/12/19 01:08:45;;;;;;;26.85;13.98;;;4.90;96.00;;;;;;5012222;28;20084;-68
2020/12/19 01:11:16;;;;;;;30.85;13.73;;;4.90;96.00;;;;;;5028839;28;20037;-67
2020/12/19 01:13:44;;;;;;;28.35;15.00;;;4.80;96.00;;;;;;5030249;28;20029;-68
2020/12/19 01:16:16;;;;;;;28.23;14.38;;;4.80;96.00;;;;;;5019200;28;20024;-68
2020/12/19 01:18:43;;;;;;;25.00;13.82;;;4.80;96.00;;;;;;5031369;28;20034;-69
2020/12/19 01:21:27;;;;;;;24.98;13.82;;;4.90;96.00;;;;;;5019134;28;20073;-69
2020/12/19 01:23:53;;;;;;;28.17;13.50;;;4.80;96.00;;;;;;5011461;28;20064;-68
2020/12/19 01:26:19;;;;;;;24.20;13.40;;;4.80;96.00;;;;;;5029014;28;20025;-69
2020/12/19 01:28:45;;;;;;;25.02;12.85;;;4.80;96.10;;;;;;5023581;28;20162;-68
2020/12/19 01:31:13;;;;;;;25.00;13.60;;;4.80;96.10;;;;;;5028741;28;20037;-68
2020/12/19 01:33:39;;;;;;;24.90;12.73;;;4.80;96.00;;;;;;5023874;28;20033;-68
2020/12/19 01:36:12;;;;;;;25.92;13.07;;;4.80;96.10;;;;;;5029725;28;20099;-68
2020/12/19 01:38:38;;;;;;;25.75;13.10;;;4.80;96.10;;;;;;5030030;28;20442;-68
2020/12/19 01:41:04;;;;;;;27.60;15.05;;;4.80;96.10;;;;;;5034373;28;20033;-68
2020/12/19 01:44:03;;;;;;;25.75;13.18;;;4.70;96.10;;;;;;5026755;28;20076;-69
2020/12/19 01:46:31;;;;;;;24.42;13.18;;;4.80;96.10;;;;;;5010003;28;20040;-68
2020/12/19 01:48:59;;;;;;;28.42;14.00;;;4.80;96.20;;;;;;5016885;28;20430;-68
2020/12/19 01:51:26;;;;;;;24.10;13.18;;;4.70;96.10;;;;;;5044515;28;20037;-69
2020/12/19 01:53:53;;;;;;;29.55;12.93;;;4.70;96.10;;;;;;4997369;28;20042;-68
2020/12/19 01:56:36;;;;;;;28.83;14.75;;;4.70;96.20;;;;;;5032295;28;20361;-68
2020/12/19 01:59:02;;;;;;;27.75;13.68;;;4.80;96.20;;;;;;5014907;28;20363;-68
2020/12/19 02:01:29;;;;;;;27.75;13.88;;;4.70;96.10;;;;;;5033382;28;20040;-68
2020/12/19 02:03:54;;;;;;;24.73;14.05;;;4.80;96.20;;;;;;5018149;28;20360;-68
2020/12/19 02:06:22;;;;;;;26.48;12.82;;;4.70;96.20;;;;;;5015422;28;20124;-67
2020/12/19 02:08:49;;;;;;;28.02;13.68;;;4.70;96.20;;;;;;5019132;28;20301;-68
2020/12/19 02:11:15;;;;;;;26.23;12.63;;;4.70;96.10;;;;;;5030794;28;20041;-68
2020/12/19 02:13:40;;;;;;;28.73;14.52;;;4.70;96.10;;;;;;5019710;28;20084;-67
2020/12/19 02:16:06;;;;;;;24.83;13.35;;;4.70;96.10;;;;;;5026405;28;20033;-68
2020/12/19 02:18:31;;;;;;;31.02;14.40;;;4.70;96.10;;;;;;5030154;28;20553;-68
2020/12/19 02:20:57;;;;;;;27.13;14.40;;;4.60;96.20;;;;;;5015690;28;20037;-68
2020/12/19 02:23:22;;;;;;;25.80;13.32;;;4.60;96.20;;;;;;5023496;28;20550;-67
2020/12/19 02:25:48;;;;;;;27.60;14.05;;;4.60;96.20;;;;;;5021891;28;20033;-68
2020/12/19 02:28:14;;;;;;;26.38;14.18;;;4.60;96.20;;;;;;5015475;28;20030;-68
2020/12/19 02:30:39;;;;;;;28.05;13.48;;;4.60;96.20;;;;;;5032002;28;20045;-68
2020/12/19 02:33:05;;;;;;;28.13;13.93;;;4.60;96.20;;;;;;5027468;28;20025;-69
2020/12/19 02:35:30;;;;;;;28.73;13.85;;;4.60;96.20;;;;;;5019848;28;20029;-69
2020/12/19 02:38:00;;;;;;;23.88;13.30;;;4.60;96.20;;;;;;5033318;28;20017;-68
2020/12/19 02:40:25;;;;;;;24.27;13.13;;;4.50;96.20;;;;;;5029579;28;20093;-68
2020/12/19 02:42:51;;;;;;;24.52;14.35;;;4.50;96.20;;;;;;5016379;28;20160;-69
2020/12/19 02:45:16;;;;;;;28.92;13.75;;;4.50;96.20;;;;;;5032929;28;20029;-69
2020/12/19 02:47:41;;;;;;;24.70;13.88;;;4.50;96.20;;;;;;5032694;28;20033;-70
2020/12/19 02:50:07;;;;;;;27.48;13.80;;;4.50;96.20;;;;;;5032098;28;20041;-69
2020/12/19 02:52:33;;;;;;;26.90;12.95;;;4.50;96.20;;;;;;5028230;28;20022;-69
2020/12/19 02:54:58;;;;;;;27.25;13.32;;;4.50;96.20;;;;;;5013335;28;20046;-69
2020/12/19 02:57:24;;;;;;;27.92;13.68;;;4.50;96.20;;;;;;5026334;28;20096;-69
2020/12/19 02:59:49;;;;;;;25.27;12.75;;;4.50;96.20;;;;;;4996170;28;20034;-69
2020/12/19 03:02:15;;;;;;;27.58;13.73;;;4.50;96.20;;;;;;5026912;28;20029;-68
2020/12/19 03:04:41;;;;;;;25.05;12.35;;;4.50;96.20;;;;;;5013869;28;20486;-68
2020/12/19 03:07:06;;;;;;;23.00;12.20;;;4.50;96.20;;;;;;5027344;28;20269;-68
2020/12/19 03:09:32;;;;;;;24.95;12.43;;;4.50;96.20;;;;;;5013725;28;20036;-69
2020/12/19 03:11:57;;;;;;;25.42;13.85;;;4.50;96.30;;;;;;5015665;28;20463;-69
2020/12/19 03:14:22;;;;;;;27.88;13.02;;;4.40;96.20;;;;;;5013213;28;20030;-69
2020/12/19 03:16:48;;;;;;;23.27;12.18;;;4.40;96.30;;;;;;5026402;28;20095;-69
2020/12/19 03:19:14;;;;;;;24.98;12.38;;;4.40;96.30;;;;;;5033242;28;20063;-69
2020/12/19 03:21:39;;;;;;;23.25;11.88;;;4.40;96.30;;;;;;5031753;28;20105;-69
2020/12/19 03:24:05;;;;;;;25.92;13.07;;;4.40;96.30;;;;;;5031928;28;20092;-69
2020/12/19 03:26:31;;;;;;;25.73;12.85;;;4.40;96.30;;;;;;5030930;28;20112;-69
2020/12/19 03:28:56;;;;;;;26.10;13.18;;;4.40;96.30;;;;;;5033003;28;20076;-69
2020/12/19 03:31:22;;;;;;;25.63;11.57;;;4.40;96.30;;;;;;5032353;28;20041;-69
2020/12/19 03:33:47;;;;;;;24.35;12.30;;;4.40;96.30;;;;;;5031970;28;20065;-69
2020/12/19 03:36:13;;;;;;;24.63;12.68;;;4.40;96.40;;;;;;5030441;28;20033;-69
2020/12/19 03:38:38;;;;;;;23.92;12.50;;;4.40;96.40;;;;;;5029824;28;20100;-69
2020/12/19 03:41:04;;;;;;;27.23;12.88;;;4.40;96.40;;;;;;5019670;28;20029;-69
2020/12/19 03:43:29;;;;;;;27.05;12.57;;;4.40;96.40;;;;;;5031716;28;20025;-69
2020/12/19 03:45:55;;;;;;;24.55;12.45;;;4.40;96.40;;;;;;5030625;28;20389;-69
2020/12/19 03:48:21;;;;;;;24.63;12.68;;;4.40;96.40;;;;;;5032782;28;20470;-69
2020/12/19 03:50:47;;;;;;;28.67;13.20;;;4.40;96.40;;;;;;5020999;28;20095;-70
2020/12/19 03:53:12;;;;;;;26.90;13.35;;;4.40;96.40;;;;;;5032296;28;20429;-70
2020/12/19 03:55:38;;;;;;;25.02;12.30;;;4.40;96.40;;;;;;5016562;28;20033;-70
2020/12/19 03:58:03;;;;;;;23.80;11.93;;;4.40;96.40;;;;;;5031973;28;20407;-69
2020/12/19 04:00:29;;;;;;;24.80;11.75;;;4.30;96.40;;;;;;5024267;28;20055;-70
2020/12/19 04:02:54;;;;;;;27.33;13.65;;;4.30;96.40;;;;;;5032338;28;20025;-70
2020/12/19 04:05:20;;;;;;;23.30;11.98;;;4.30;96.40;;;;;;5022841;28;20037;-69
2020/12/19 04:07:45;;;;;;;26.35;12.80;;;4.30;96.40;;;;;;5032205;28;20124;-68
2020/12/19 04:10:11;;;;;;;26.30;13.30;;;4.30;96.40;;;;;;5016537;28;20219;-68
2020/12/19 04:12:36;;;;;;;24.45;12.23;;;4.30;96.50;;;;;;4994242;28;20038;-67
2020/12/19 04:15:07;;;;;;;24.52;12.20;;;4.30;96.50;;;;;;5012499;28;20499;-69
2020/12/19 04:17:33;;;;;;;24.90;12.65;;;4.20;96.40;;;;;;5028274;28;20039;-68
2020/12/19 04:19:59;;;;;;;27.30;13.00;;;4.30;96.40;;;;;;5019757;28;20042;-68
2020/12/19 04:22:24;;;;;;;26.73;13.07;;;4.20;96.40;;;;;;5028094;28;20484;-68
2020/12/19 04:24:50;;;;;;;27.65;12.70;;;4.20;96.40;;;;;;5016742;28;20033;-68
2020/12/19 04:27:15;;;;;;;23.25;12.40;;;4.20;96.40;;;;;;5026427;28;20030;-68
2020/12/19 04:29:41;;;;;;;23.63;12.80;;;4.20;96.40;;;;;;5029476;28;20108;-68
2020/12/19 04:32:07;;;;;;;28.48;12.70;;;4.20;96.50;;;;;;4996382;28;20107;-68
2020/12/19 04:34:32;;;;;;;23.48;11.57;;;4.20;96.50;;;;;;5012094;28;20048;-68
2020/12/19 04:36:58;;;;;;;24.80;12.18;;;4.20;96.50;;;;;;5022739;28;20499;-69
2020/12/19 04:39:23;;;;;;;28.08;13.20;;;4.10;96.50;;;;;;5031521;28;20018;-69
2020/12/19 04:41:49;;;;;;;23.85;11.48;;;4.10;96.50;;;;;;5030913;28;20556;-68
2020/12/19 04:44:15;;;;;;;24.73;12.40;;;4.10;96.50;;;;;;5011860;28;20022;-67
2020/12/19 04:46:42;;;;;;;29.67;12.68;;;4.10;96.50;;;;;;5019837;28;20112;-68
2020/12/19 04:49:08;;;;;;;30.38;13.07;;;4.10;96.50;;;;;;5013688;28;20038;-68
2020/12/19 04:51:35;;;;;;;26.13;12.27;;;4.00;96.50;;;;;;5035165;28;20045;-68
2020/12/19 04:54:01;;;;;;;24.08;12.77;;;4.10;96.50;;;;;;5030298;28;20049;-68
2020/12/19 04:56:29;;;;;;;26.40;12.98;;;4.00;96.50;;;;;;5030595;28;20080;-68
2020/12/19 04:58:56;;;;;;;27.90;13.27;;;4.00;96.50;;;;;;5016796;28;20104;-68
2020/12/19 05:01:22;;;;;;;25.15;13.93;;;3.90;96.50;;;;;;5021779;28;20041;-68
2020/12/19 05:03:49;;;;;;;29.33;13.23;;;3.90;96.50;;;;;;5000188;28;20628;-68
2020/12/19 05:06:27;;;;;;;23.58;12.65;;;3.90;96.60;;;;;;5011173;28;20030;-68
2020/12/19 05:08:54;;;;;;;26.95;13.48;;;3.80;96.60;;;;;;5030415;28;20026;-68
2020/12/19 05:11:20;;;;;;;26.85;13.05;;;3.80;96.60;;;;;;5027633;28;20127;-68
2020/12/19 05:13:46;;;;;;;26.23;12.63;;;3.80;96.60;;;;;;5015382;28;20044;-67
2020/12/19 05:16:14;;;;;;;29.05;13.15;;;3.70;96.60;;;;;;5015437;28;20560;-67
2020/12/19 05:18:40;;;;;;;26.10;13.07;;;3.80;96.70;;;;;;5031640;28;20060;-67
2020/12/19 05:21:07;;;;;;;27.90;13.55;;;3.70;96.70;;;;;;5022661;28;20084;-67
2020/12/19 05:23:34;;;;;;;26.83;12.57;;;3.70;96.70;;;;;;5014492;28;20091;-68
2020/12/19 05:26:01;;;;;;;26.95;13.10;;;3.70;96.70;;;;;;5013216;28;20076;-67
2020/12/19 05:28:27;;;;;;;26.58;13.18;;;3.70;96.90;;;;;;5013784;28;20017;-68
2020/12/19 05:30:52;;;;;;;27.38;12.68;;;3.70;96.70;;;;;;4994866;28;20438;-68
2020/12/19 05:33:18;;;;;;;27.63;13.13;;;3.70;96.70;;;;;;5029972;28;20059;-67
2020/12/19 05:35:44;;;;;;;27.73;12.70;;;3.70;96.70;;;;;;5025564;28;20483;-69
2020/12/19 05:38:10;;;;;;;25.65;13.57;;;3.70;96.70;;;;;;5030806;28;20123;-68
2020/12/19 05:40:36;;;;;;;25.25;12.73;;;3.70;96.70;;;;;;5029502;28;20025;-68
2020/12/19 05:43:01;;;;;;;25.92;12.95;;;3.60;96.80;;;;;;5029661;28;20094;-68
2020/12/19 05:45:29;;;;;;;26.92;12.70;;;3.60;96.80;;;;;;5012209;28;20030;-68
2020/12/19 05:47:54;;;;;;;29.08;12.43;;;3.60;96.80;;;;;;5028679;28;20482;-69
2020/12/19 05:50:21;;;;;;;29.27;12.52;;;3.60;96.90;;;;;;5030477;28;20033;-67
2020/12/19 05:52:47;;;;;;;25.20;12.60;;;3.60;96.90;;;;;;5029663;28;20037;-66
2020/12/19 05:55:15;;;;;;;26.98;12.80;;;3.60;96.90;;;;;;5030724;28;20049;-68
2020/12/19 05:57:41;;;;;;;25.98;12.60;;;3.60;96.90;;;;;;5017116;28;20032;-70
2020/12/19 06:00:17;;;;;;;28.10;12.75;;;3.60;96.90;;;;;;5020629;28;20064;-67
2020/12/19 06:02:44;;;;;;;26.60;12.48;;;3.60;96.90;;;;;;5030054;28;20069;-66
2020/12/19 06:05:11;;;;;;;28.63;12.82;;;3.60;96.90;;;;;;5030704;28;20026;-66
2020/12/19 06:07:45;;;;;;;25.25;13.27;;;3.60;96.90;;;;;;5024581;28;20120;-66
2020/12/19 06:10:13;;;;;;;25.98;12.70;;;3.60;97.00;;;;;;5030826;28;20421;-67
2020/12/19 06:13:10;;;;;;;26.17;12.15;;;3.60;97.00;;;;;;5028224;28;20065;-67
2020/12/19 06:15:56;;;;;;;24.70;12.25;;;3.60;97.00;;;;;;5030581;28;20034;-67
2020/12/19 06:18:57;;;;;;;28.48;12.88;;;3.60;97.00;;;;;;5012672;28;20049;-67
2020/12/19 06:21:23;;;;;;;27.02;12.55;;;3.60;97.00;;;;;;5028417;28;20033;-67
2020/12/19 06:23:49;;;;;;;27.92;13.35;;;3.60;97.00;;;;;;5031103;28;20034;-67
2020/12/19 06:26:14;;;;;;;25.48;12.10;;;3.60;97.10;;;;;;5032111;28;20429;-68
2020/12/19 06:28:40;;;;;;;25.67;11.98;;;3.60;97.10;;;;;;5013055;28;20544;-67
2020/12/19 06:31:14;;;;;;;28.27;13.13;;;3.60;97.30;;;;;;5019596;28;20038;-67
2020/12/19 06:33:42;;;;;;;27.35;13.23;;;3.60;97.10;;;;;;5032521;28;20029;-67
2020/12/19 06:36:23;;;;;;;29.17;13.38;;;3.60;97.10;;;;;;5025567;28;20498;-67
2020/12/19 06:38:54;;;;;;;26.33;12.40;;;3.60;97.20;;;;;;5030547;28;20026;-67
2020/12/19 06:41:40;;;;;;;29.50;13.68;;;3.60;97.20;;;;;;5032653;28;20552;-67
2020/12/19 06:44:24;;;;;;;26.45;13.35;;;3.60;97.10;;;;;;5028510;28;20034;-67
2020/12/19 06:46:50;;;;;;;30.83;14.63;;;3.60;97.20;;;;;;5019753;28;20068;-67
2020/12/19 06:49:26;;;;;;;27.85;13.55;;;3.60;97.10;;;;;;5027061;28;20116;-67
2020/12/19 06:51:59;;;;;;;26.30;13.18;;;3.60;97.20;;;;;;5026350;28;20046;-66
2020/12/19 06:54:30;;;;;;;26.67;12.50;;;3.60;97.20;;;;;;5014285;28;20052;-67
2020/12/19 06:56:55;;;;;;;26.20;13.07;;;3.60;97.20;;;;;;5032449;28;20026;-67
2020/12/19 06:59:25;;;;;;;28.17;13.40;;;3.70;97.20;;;;;;5032943;28;20449;-66
2020/12/19 07:01:51;;;;;;;25.42;12.63;;;3.60;97.30;;;;;;5012085;28;20032;-67
2020/12/19 07:04:35;;;;;;;25.67;12.50;;;3.70;97.30;;;;;;5030402;28;20033;-67
2020/12/19 07:07:06;;;;;;;27.17;13.43;;;3.70;97.30;;;;;;5019820;28;20037;-67
2020/12/19 07:09:32;;;;;;;24.85;11.70;;;3.70;97.30;;;;;;5031304;28;20033;-67
2020/12/19 07:11:57;;;;;;;27.63;13.02;;;3.70;97.30;;;;;;5031323;28;20647;-67
2020/12/19 07:14:23;;;;;;;25.73;12.52;;;3.70;97.30;;;;;;5022016;28;20552;-68
2020/12/19 07:16:51;;;;;;;29.60;13.40;;;3.70;97.40;;;;;;5016959;28;20087;-68
2020/12/19 07:19:25;;;;;;;26.80;12.88;;;3.80;97.40;;;;;;5033230;28;20529;-69
2020/12/19 07:21:55;;;;;;;26.45;12.90;;;3.80;97.40;;;;;;5030735;28;20436;-69
2020/12/19 07:24:21;;;;;;;26.10;13.32;;;3.80;97.40;;;;;;5029340;28;20037;-70
2020/12/19 07:26:48;;;;;;;25.05;13.07;;;3.80;97.40;;;;;;5022054;28;20029;-69
2020/12/19 07:29:23;;;;;;;26.38;12.50;;;3.80;97.50;;;;;;5051704;28;20087;-69
2020/12/19 07:31:52;;;;;;;25.77;12.27;;;3.80;97.50;;;;;;5033991;28;20056;-69
2020/12/19 07:34:18;;;;;;;25.13;11.90;;;3.80;97.50;;;;;;5031874;28;20068;-69
2020/12/19 07:36:45;;;;;;;30.90;13.18;;;3.80;97.50;;;;;;5019436;28;20037;-68
2020/12/19 07:39:12;;;;;;;26.02;13.05;;;3.90;97.60;;;;;;5013397;28;20497;-68
2020/12/19 07:41:38;;;;;;;24.10;12.15;;;3.90;97.60;;;;;;5014444;28;20527;-68
2020/12/19 07:44:12;;;;;;;23.20;12.75;;;3.90;97.60;;;;;;5026290;28;20117;-68
2020/12/19 07:46:48;;;;;;;26.92;14.27;;;4.00;97.70;;;;;;5013921;28;20034;-68
2020/12/19 07:49:26;;;;;;;24.88;12.52;;;4.00;97.60;;;;;;5031615;28;20183;-69
2020/12/19 07:52:07;;;;;;;26.58;13.02;;;4.00;97.60;;;;;;5022846;28;20498;-68
2020/12/19 07:54:33;;;;;;;28.05;13.15;;;4.00;97.60;;;;;;5007203;28;20454;-69
2020/12/19 07:57:00;;;;;;;25.50;12.60;;;4.00;97.60;;;;;;5019696;28;20025;-69
2020/12/19 07:59:27;;;;;;;26.90;13.23;;;4.10;97.60;;;;;;5009271;28;20034;-69
2020/12/19 08:01:53;;;;;;;25.63;13.45;;;4.10;97.70;;;;;;5020614;28;20061;-68
2020/12/19 08:04:19;;;;;;;30.52;15.02;;;4.10;97.70;;;;;;5032371;28;20079;-68
2020/12/19 08:06:48;;;;;;;25.67;12.88;;;4.10;97.70;;;;;;5016651;28;20033;-68
2020/12/19 08:09:20;;;;;;;25.63;12.88;;;4.10;97.70;;;;;;5032615;28;20606;-68
2020/12/19 08:11:47;;;;;;;26.77;13.88;;;4.10;97.70;;;;;;5030527;28;20514;-68
2020/12/19 08:14:17;;;;;;;28.35;14.15;;;4.10;97.70;;;;;;5028124;28;20037;-67
2020/12/19 08:16:43;;;;;;;23.75;13.45;;;4.20;97.70;;;;;;5025425;28;20498;-68
2020/12/19 08:19:11;;;;;;;28.05;13.88;;;4.20;97.70;;;;;;5012827;28;20426;-70
2020/12/19 08:21:38;;;;;;;23.98;12.63;;;4.20;97.70;;;;;;5012079;28;20107;-68
2020/12/19 08:24:05;;;;;;;24.42;13.45;;;4.20;97.70;;;;;;5031313;28;20025;-70
2020/12/19 08:26:31;;;;;;;24.25;13.20;;;4.20;97.70;;;;;;5031561;28;20057;-70
2020/12/19 08:29:05;;;;;;;25.63;13.18;;;4.30;97.70;;;;;;5021176;28;20025;-72
2020/12/19 08:31:36;;;;;;;22.25;13.30;;;4.30;97.90;;;;;;5032000;28;20433;-70
2020/12/19 08:34:04;;;;;;;27.27;13.30;;;4.30;97.70;;;;;;5013797;28;20497;-71
2020/12/19 08:36:30;;;;;;;24.02;12.85;;;4.40;97.70;;;;;;5012058;28;20040;-69
2020/12/19 08:39:12;;;;;;;28.20;13.77;;;4.40;97.70;;;;;;5011523;28;20030;-69
2020/12/19 08:41:37;;;;;;;21.25;11.38;;;4.50;97.80;;;;;;5035396;28;20044;-70
2020/12/19 08:44:03;;;;;;;24.50;12.98;;;4.50;97.70;;;;;;5021243;28;20029;-69
2020/12/19 08:46:29;;;;;;;22.27;11.73;;;4.60;97.70;;;;;;5031898;28;20017;-69
2020/12/19 08:49:01;;;;;;;21.55;11.52;;;4.60;97.70;;;;;;5028167;28;20026;-69
2020/12/19 08:51:26;;;;;;;25.35;13.77;;;4.70;97.80;;;;;;5031333;28;20043;-69
2020/12/19 08:53:53;;;;;;;23.88;12.20;;;4.70;97.70;;;;;;5030612;28;20501;-69
2020/12/19 08:56:25;;;;;;;21.80;11.60;;;4.80;97.70;;;;;;5031793;28;20072;-69
2020/12/19 08:58:55;;;;;;;21.85;11.98;;;4.90;97.70;;;;;;5030903;28;20025;-69
2020/12/19 09:01:21;;;;;;;21.13;12.02;;;5.00;97.70;;;;;;5031541;28;20065;-69
2020/12/19 09:03:47;;;;;;;23.27;12.43;;;5.00;97.70;;;;;;5030749;28;20362;-69
2020/12/19 09:06:14;;;;;;;19.88;11.88;;;5.10;97.70;;;;;;5013604;28;20030;-69
2020/12/19 09:08:42;;;;;;;24.67;12.50;;;5.10;97.60;;;;;;5021223;28;20155;-69
2020/12/19 09:11:20;;;;;;;24.42;12.75;;;5.20;97.60;;;;;;5051143;28;20135;-69
2020/12/19 09:13:46;;;;;;;22.90;12.32;;;5.20;97.60;;;;;;5034379;28;20040;-69
2020/12/19 09:16:12;;;;;;;21.45;12.05;;;5.30;97.50;;;;;;5029938;28;20025;-69
2020/12/19 09:18:38;;;;;;;21.55;12.50;;;5.30;97.50;;;;;;5027939;28;20029;-69
2020/12/19 09:21:09;;;;;;;23.08;11.95;;;5.40;97.50;;;;;;5030073;28;20021;-68
2020/12/19 09:23:35;;;;;;;24.15;11.65;;;5.40;97.40;;;;;;5043071;28;20025;-68
2020/12/19 09:26:02;;;;;;;20.17;11.18;;;5.50;97.40;;;;;;5013936;28;20034;-69
2020/12/19 09:28:29;;;;;;;23.35;12.25;;;5.60;97.40;;;;;;5030667;28;20025;-70
2020/12/19 09:30:55;;;;;;;24.48;13.82;;;5.60;97.30;;;;;;5043701;28;20397;-69
2020/12/19 09:33:21;;;;;;;18.50;11.20;;;5.60;97.30;;;;;;5037768;28;20028;-69
2020/12/19 09:35:48;;;;;;;22.08;12.27;;;5.70;97.20;;;;;;5031349;28;20034;-69
2020/12/19 09:38:14;;;;;;;18.02;11.88;;;5.80;97.20;;;;;;5029044;28;20113;-69
2020/12/19 09:40:39;;;;;;;20.83;11.45;;;5.80;97.20;;;;;;5031166;28;20187;-69
2020/12/19 09:43:06;;;;;;;18.35;11.18;;;5.80;97.10;;;;;;5030304;28;20029;-69
2020/12/19 09:45:33;;;;;;;18.95;10.82;;;5.90;97.00;;;;;;5029157;28;20594;-69
2020/12/19 09:47:58;;;;;;;19.45;11.55;;;5.90;97.00;;;;;;5030438;28;20087;-69
2020/12/19 09:50:26;;;;;;;20.88;10.95;;;6.00;97.00;;;;;;5031085;28;20429;-70
2020/12/19 09:52:52;;;;;;;19.88;11.57;;;6.00;96.90;;;;;;5028893;28;20040;-69
2020/12/19 09:55:18;;;;;;;18.30;10.23;;;6.10;96.80;;;;;;5029657;28;20052;-69
2020/12/19 09:57:43;;;;;;;18.77;10.77;;;6.10;96.80;;;;;;5030449;28;20025;-70
2020/12/19 10:00:10;;;;;;;19.70;10.38;;;6.20;96.70;;;;;;5034912;28;20032;-70
2020/12/19 10:02:36;;;;;;;17.35;10.48;;;6.10;96.70;;;;;;5033309;28;20457;-69
2020/12/19 10:05:02;;;;;;;20.80;11.65;;;6.20;96.70;;;;;;5035120;28;20049;-69
2020/12/19 10:07:27;;;;;;;16.70;10.02;;;6.20;96.70;;;;;;5033865;28;20037;-68
2020/12/19 10:09:53;;;;;;;18.15;9.95;;;6.30;96.60;;;;;;5034806;28;20493;-69
2020/12/19 10:12:18;;;;;;;20.67;11.00;;;6.40;96.60;;;;;;5033637;28;20033;-69
2020/12/19 10:14:44;;;;;;;19.48;9.98;;;6.40;96.50;;;;;;5015889;28;20501;-69
2020/12/19 10:17:09;;;;;;;18.05;10.13;;;6.40;96.40;;;;;;5032681;28;20087;-69
2020/12/19 10:19:35;;;;;;;19.83;10.90;;;6.50;96.40;;;;;;5014861;28;20048;-69
2020/12/19 10:22:01;;;;;;;16.77;9.95;;;6.50;96.40;;;;;;5051869;28;20021;-69
2020/12/19 10:24:27;;;;;;;17.40;10.25;;;6.50;96.30;;;;;;5033939;28;20036;-69
2020/12/19 10:26:52;;;;;;;17.38;10.43;;;6.60;96.30;;;;;;5034568;28;20021;-69
2020/12/19 10:29:18;;;;;;;16.67;10.25;;;6.70;96.30;;;;;;5032791;28;20021;-69
2020/12/19 10:31:44;;;;;;;17.60;9.80;;;6.70;96.10;;;;;;5034269;28;20501;-70
2020/12/19 10:34:09;;;;;;;17.60;9.88;;;6.70;96.20;;;;;;5033047;28;20018;-69
2020/12/19 10:36:35;;;;;;;16.25;10.00;;;6.70;96.20;;;;;;5014878;28;20105;-69
2020/12/19 10:39:01;;;;;;;18.80;10.80;;;6.80;96.10;;;;;;5029211;28;20021;-69
2020/12/19 10:41:26;;;;;;;17.85;10.23;;;6.90;96.20;;;;;;5034230;28;20063;-69
2020/12/19 10:43:52;;;;;;;16.70;9.95;;;6.90;96.30;;;;;;5020263;28;20470;-70
2020/12/19 10:46:21;;;;;;;18.48;9.60;;;7.00;96.20;;;;;;5016348;28;20393;-70
2020/12/19 10:48:47;;;;;;;15.32;9.52;;;7.10;96.10;;;;;;5033280;28;20034;-70
2020/12/19 10:51:13;;;;;;;17.40;10.32;;;7.10;96.10;;;;;;5031593;28;20036;-70
2020/12/19 10:53:43;;;;;;;15.70;9.57;;;7.20;96.20;;;;;;5041398;28;20045;-70
2020/12/19 10:56:15;;;;;;;16.95;10.32;;;7.20;96.10;;;;;;5034134;28;20557;-70
2020/12/19 10:58:41;;;;;;;17.20;9.95;;;7.30;95.90;;;;;;5032985;28;20473;-69
2020/12/19 11:01:06;;;;;;;17.58;10.18;;;7.30;96.00;;;;;;5032786;28;20028;-70
2020/12/19 11:03:32;;;;;;;17.65;9.65;;;7.30;95.90;;;;;;5032945;28;20033;-70
2020/12/19 11:05:57;;;;;;;15.85;8.90;;;7.40;95.80;;;;;;5032984;28;20055;-70
2020/12/19 11:08:24;;;;;;;17.88;10.30;;;7.50;95.80;;;;;;5013871;28;20119;-70
2020/12/19 11:10:49;;;;;;;17.77;10.43;;;7.50;95.80;;;;;;5033245;28;20029;-70
2020/12/19 11:13:14;;;;;;;17.63;11.05;;;7.50;95.70;;;;;;5032773;28;20071;-70
2020/12/19 11:15:40;;;;;;;16.05;9.93;;;7.60;95.70;;;;;;5033662;28;20108;-70
2020/12/19 11:18:06;;;;;;;16.15;9.48;;;7.60;95.60;;;;;;5030653;28;21572;-69
2020/12/19 11:20:31;;;;;;;16.23;9.40;;;7.60;95.50;;;;;;5033306;28;20010;-70
2020/12/19 11:22:57;;;;;;;17.50;10.88;;;7.60;95.70;;;;;;5032662;28;20541;-70
2020/12/19 11:25:22;;;;;;;15.80;10.13;;;7.60;95.70;;;;;;5032175;28;20035;-69
2020/12/19 11:27:48;;;;;;;17.58;10.02;;;7.70;95.50;;;;;;5032479;28;20052;-69
2020/12/19 11:30:13;;;;;;;14.60;9.05;;;7.70;95.50;;;;;;5033032;28;20109;-69
2020/12/19 11:32:41;;;;;;;16.92;9.55;;;7.70;95.50;;;;;;5032292;28;20092;-70
2020/12/19 11:35:07;;;;;;;16.27;9.95;;;7.70;95.50;;;;;;5033323;28;20017;-69
2020/12/19 11:37:33;;;;;;;14.00;8.68;;;7.80;95.50;;;;;;5014477;28;20029;-69
2020/12/19 11:39:58;;;;;;;14.73;8.95;;;7.90;95.50;;;;;;5013652;28;20021;-69
2020/12/19 11:42:23;;;;;;;17.23;10.48;;;7.90;95.60;;;;;;5047572;28;20028;-69
2020/12/19 11:44:49;;;;;;;18.38;9.73;;;7.90;95.30;;;;;;5032132;28;20377;-69
2020/12/19 11:47:14;;;;;;;14.45;9.00;;;7.90;95.20;;;;;;5033132;28;20037;-69
2020/12/19 11:49:40;;;;;;;14.02;8.50;;;8.00;95.10;;;;;;5032137;28;20079;-69
2020/12/19 11:52:09;;;;;;;13.27;8.13;;;8.00;95.10;;;;;;5032494;28;20025;-69
2020/12/19 11:54:35;;;;;;;15.10;9.80;;;8.00;95.10;;;;;;5031965;28;20518;-70
2020/12/19 11:57:02;;;;;;;15.15;9.38;;;8.00;95.00;;;;;;5032643;28;20034;-70
2020/12/19 11:59:27;;;;;;;15.50;9.32;;;8.10;95.00;;;;;;5032257;28;20033;-70
2020/12/19 12:01:52;;;;;;;16.33;9.82;;;8.10;95.00;;;;;;5032211;28;20025;-70
2020/12/19 12:04:18;;;;;;;17.73;9.68;;;8.10;94.90;;;;;;5018660;28;20631;-69
2020/12/19 12:06:43;;;;;;;14.75;8.50;;;8.20;94.80;;;;;;5024023;28;20029;-70
2020/12/19 12:09:09;;;;;;;17.20;10.65;;;8.10;94.90;;;;;;5031020;28;20116;-70
2020/12/19 12:11:34;;;;;;;13.45;8.30;;;8.20;94.90;;;;;;5032062;28;20046;-70
2020/12/19 12:14:00;;;;;;;15.55;8.68;;;8.20;94.80;;;;;;5029944;28;20068;-69
2020/12/19 12:16:26;;;;;;;14.02;8.90;;;8.20;94.70;;;;;;5022002;28;20033;-70
2020/12/19 12:18:53;;;;;;;16.33;9.20;;;8.30;94.70;;;;;;5028581;28;20033;-73
2020/12/19 12:21:18;;;;;;;17.38;9.88;;;8.30;94.70;;;;;;5031566;28;20522;-69
2020/12/19 12:23:45;;;;;;;15.02;9.07;;;8.30;94.60;;;;;;5036314;28;20120;-70
2020/12/19 12:26:11;;;;;;;13.65;8.70;;;8.30;94.70;;;;;;5032289;28;20377;-70
2020/12/19 12:28:37;;;;;;;13.27;8.85;;;8.40;94.70;;;;;;5030169;28;20040;-70
2020/12/19 12:31:02;;;;;;;15.38;9.48;;;8.40;94.60;;;;;;5032253;28;20033;-70
2020/12/19 12:33:28;;;;;;;13.95;9.00;;;8.40;94.50;;;;;;5036633;28;20370;-70
2020/12/19 12:35:53;;;;;;;16.60;8.88;;;8.50;94.60;;;;;;5032110;28;20021;-70
2020/12/19 12:38:19;;;;;;;13.07;8.43;;;8.50;94.50;;;;;;5027693;28;20065;-70